createdAt,value
2019-05-23T00:00:50.874Z,99.90
2019-05-23T00:03:21.089Z,99.90
2019-05-23T00:06:03.663Z,99.90
2019-05-23T00:08:32.251Z,99.90
2019-05-23T00:11:05.341Z,99.90
2019-05-23T00:13:35.629Z,99.90
2019-05-23T00:16:04.709Z,99.80
2019-05-23T00:18:35.799Z,99.90
2019-05-23T00:21:05.296Z,99.90
2019-05-23T00:23:33.765Z,99.90
2019-05-23T00:26:02.858Z,99.90
2019-05-23T00:28:32.137Z,99.90
2019-05-23T00:31:04.957Z,99.90
2019-05-23T00:33:34.854Z,99.80
2019-05-23T00:36:03.427Z,99.80
2019-05-23T00:38:32.699Z,99.90
2019-05-23T00:41:02.641Z,99.90
2019-05-23T00:43:31.493Z,99.80
2019-05-23T00:46:00.741Z,99.70
2019-05-23T00:48:30.165Z,99.80
2019-05-23T00:50:58.596Z,99.90
2019-05-23T00:53:28.169Z,99.90
2019-05-23T00:55:57.624Z,99.90
2019-05-23T00:58:26.610Z,99.90
2019-05-23T01:00:57.621Z,99.90
2019-05-23T01:03:29.562Z,99.90
2019-05-23T01:05:58.669Z,99.90
2019-05-23T01:08:28.080Z,99.90
2019-05-23T01:10:56.545Z,99.90
2019-05-23T01:13:26.881Z,99.90
2019-05-23T01:15:55.671Z,99.90
2019-05-23T01:18:25.092Z,99.90
2019-05-23T01:21:01.375Z,99.90
2019-05-23T01:23:37.916Z,99.90
2019-05-23T01:26:06.489Z,99.90
2019-05-23T01:28:35.263Z,99.90
2019-05-23T01:31:11.620Z,99.90
2019-05-23T01:33:40.085Z,99.90
2019-05-23T01:36:09.604Z,99.90
2019-05-23T01:38:38.984Z,99.90
2019-05-23T01:41:07.452Z,99.90
2019-05-23T01:43:36.449Z,99.90
2019-05-23T01:46:05.215Z,99.70
2019-05-23T01:48:33.647Z,99.60
2019-05-23T01:51:02.205Z,99.90
2019-05-23T01:53:31.744Z,99.90
2019-05-23T01:56:00.487Z,99.90
2019-05-23T01:58:29.460Z,99.90
2019-05-23T02:00:57.958Z,99.90
2019-05-23T02:03:26.381Z,99.90
2019-05-23T02:05:55.630Z,99.90
2019-05-23T02:08:24.215Z,99.90
2019-05-23T02:10:53.358Z,99.90
2019-05-23T02:13:22.429Z,99.90
2019-05-23T02:15:51.345Z,99.90
2019-05-23T02:18:20.300Z,99.90
2019-05-23T02:20:48.993Z,99.90
2019-05-23T02:23:19.551Z,99.90
2019-05-23T02:25:48.716Z,99.90
2019-05-23T02:28:17.518Z,99.90
2019-05-23T02:30:47.358Z,99.90
2019-05-23T02:33:16.045Z,99.90
2019-05-23T02:35:44.700Z,99.90
2019-05-23T02:38:21.118Z,99.90
2019-05-23T02:40:54.253Z,99.90
2019-05-23T02:43:24.798Z,99.90
2019-05-23T02:45:59.017Z,99.90
2019-05-23T02:48:31.194Z,99.90
2019-05-23T02:51:03.299Z,99.90
2019-05-23T02:53:35.370Z,99.90
2019-05-23T02:56:08.040Z,99.90
2019-05-23T02:58:43.906Z,99.90
2019-05-23T03:01:22.765Z,99.90
2019-05-23T03:03:56.106Z,99.90
2019-05-23T03:06:24.949Z,99.90
2019-05-23T03:08:54.370Z,99.90
2019-05-23T03:11:26.763Z,99.90
2019-05-23T03:13:56.785Z,99.90
2019-05-23T03:16:28.710Z,99.90
2019-05-23T03:19:03.266Z,99.90
2019-05-23T03:21:31.958Z,99.90
2019-05-23T03:24:01.602Z,99.90
2019-05-23T03:26:39.809Z,99.90
2019-05-23T03:29:08.749Z,99.90
2019-05-23T03:31:40.431Z,99.90
2019-05-23T03:34:10.302Z,99.90
2019-05-23T03:36:39.064Z,99.90
2019-05-23T03:39:09.229Z,99.90
2019-05-23T03:41:38.687Z,99.90
2019-05-23T03:44:09.345Z,99.90
2019-05-23T03:46:39.592Z,99.90
2019-05-23T03:49:08.881Z,99.90
2019-05-23T03:51:37.547Z,99.90
2019-05-23T03:54:06.056Z,99.90
2019-05-23T03:56:35.108Z,99.90
2019-05-23T03:59:04.662Z,99.90
2019-05-23T04:01:46.753Z,99.90
2019-05-23T04:04:07.263Z,99.90
2019-05-23T04:06:35.872Z,99.90
2019-05-23T04:09:06.317Z,99.90
2019-05-23T04:11:35.267Z,99.90
2019-05-23T04:14:05.797Z,99.90
2019-05-23T04:16:35.061Z,99.90
2019-05-23T04:19:03.638Z,99.90
2019-05-23T04:21:32.156Z,99.90
2019-05-23T04:24:00.663Z,99.90
2019-05-23T04:26:29.169Z,99.90
2019-05-23T04:28:58.043Z,99.90
2019-05-23T04:31:26.733Z,99.90
2019-05-23T04:33:55.147Z,99.90
2019-05-23T04:36:23.680Z,99.90
2019-05-23T04:38:52.341Z,99.90
2019-05-23T04:41:20.976Z,99.90
2019-05-23T04:43:49.413Z,99.90
2019-05-23T04:46:17.822Z,99.90
2019-05-23T04:48:46.265Z,99.90
2019-05-23T04:51:16.407Z,99.70
2019-05-23T04:53:45.009Z,99.30
2019-05-23T04:56:13.737Z,99.20
2019-05-23T04:58:42.612Z,98.50
2019-05-23T05:01:11.382Z,98.20
2019-05-23T05:03:41.250Z,98.20
2019-05-23T05:06:09.870Z,98.10
2019-05-23T05:08:38.420Z,98.20
2019-05-23T05:11:07.586Z,98.10
2019-05-23T05:13:36.276Z,98.10
2019-05-23T05:16:08.008Z,98.00
2019-05-23T05:18:36.858Z,97.80
2019-05-23T05:21:05.292Z,97.40
2019-05-23T05:23:34.956Z,97.10
2019-05-23T05:26:03.778Z,96.60
2019-05-23T05:28:32.249Z,96.10
2019-05-23T05:31:00.702Z,95.90
2019-05-23T05:33:29.194Z,95.60
2019-05-23T05:35:57.964Z,95.10
2019-05-23T05:38:28.613Z,94.60
2019-05-23T05:40:59.599Z,94.70
2019-05-23T05:43:28.382Z,93.90
2019-05-23T05:45:57.157Z,93.50
2019-05-23T05:48:25.660Z,93.20
2019-05-23T05:50:54.180Z,92.80
2019-05-23T05:53:24.583Z,92.60
2019-05-23T05:55:53.033Z,92.50
2019-05-23T05:58:21.629Z,92.20
2019-05-23T06:00:51.991Z,91.80
2019-05-23T06:03:20.439Z,91.50
2019-05-23T06:05:52.756Z,91.20
2019-05-23T06:08:22.974Z,91.10
2019-05-23T06:10:54.685Z,90.40
2019-05-23T06:13:23.489Z,90.30
2019-05-23T06:15:52.946Z,89.70
2019-05-23T06:18:21.733Z,87.80
2019-05-23T06:20:50.414Z,88.20
2019-05-23T06:23:22.654Z,87.50
2019-05-23T06:25:51.147Z,87.20
2019-05-23T06:28:20.882Z,86.90
2019-05-23T06:30:50.347Z,84.70
2019-05-23T06:33:23.689Z,83.10
2019-05-23T06:35:50.142Z,84.10
2019-05-23T06:38:18.749Z,85.30
2019-05-23T06:40:47.826Z,84.60
2019-05-23T06:43:16.542Z,83.70
2019-05-23T06:45:45.636Z,83.80
2019-05-23T06:48:16.589Z,83.70
2019-05-23T06:50:45.278Z,84.80
2019-05-23T06:53:13.879Z,84.60
2019-05-23T06:55:42.427Z,84.70
2019-05-23T06:58:11.912Z,86.40
2019-05-23T07:00:41.355Z,87.10
2019-05-23T07:03:09.837Z,86.90
2019-05-23T07:05:39.194Z,86.60
2019-05-23T07:08:07.872Z,87.00
2019-05-23T07:10:38.157Z,86.30
2019-05-23T07:13:06.786Z,85.60
2019-05-23T07:15:35.673Z,86.00
2019-05-23T07:18:04.501Z,87.00
2019-05-23T07:20:33.054Z,86.20
2019-05-23T07:23:02.162Z,85.50
2019-05-23T07:25:31.148Z,84.40
2019-05-23T07:28:00.229Z,82.50
2019-05-23T07:30:28.862Z,83.40
2019-05-23T07:32:57.688Z,80.60
2019-05-23T07:35:26.260Z,78.80
2019-05-23T07:37:54.952Z,78.80
2019-05-23T07:40:27.212Z,77.60
2019-05-23T07:42:56.141Z,79.20
2019-05-23T07:45:47.082Z,75.90
2019-05-23T07:48:16.168Z,76.90
2019-05-23T07:50:45.431Z,71.30
2019-05-23T07:53:15.718Z,67.80
2019-05-23T07:55:45.962Z,67.40
2019-05-23T07:58:15.434Z,69.50
2019-05-23T08:00:45.982Z,70.70
2019-05-23T08:03:15.776Z,67.60
2019-05-23T08:05:44.448Z,65.50
2019-05-23T08:08:12.993Z,62.50
2019-05-23T08:10:41.462Z,63.30
2019-05-23T08:13:09.894Z,64.60
2019-05-23T08:15:38.797Z,60.40
2019-05-23T08:18:07.694Z,59.50
2019-05-23T08:20:36.133Z,59.00
2019-05-23T08:23:04.708Z,61.00
2019-05-23T08:25:34.162Z,61.20
2019-05-23T08:28:04.494Z,60.30
2019-05-23T08:30:33.021Z,59.40
2019-05-23T08:33:01.732Z,59.60
2019-05-23T08:35:30.217Z,59.00
2019-05-23T08:38:00.141Z,61.40
2019-05-23T08:40:29.906Z,59.90
2019-05-23T08:42:59.066Z,59.10
2019-05-23T08:45:27.638Z,60.90
2019-05-23T08:47:56.094Z,56.50
2019-05-23T08:50:25.061Z,56.20
2019-05-23T08:52:53.588Z,55.20
2019-05-23T08:55:26.574Z,56.60
2019-05-23T08:57:55.301Z,54.10
2019-05-23T09:00:25.941Z,53.40
2019-05-23T09:02:58.568Z,54.70
2019-05-23T09:05:27.100Z,55.30
2019-05-23T09:07:55.789Z,55.20
2019-05-23T09:10:24.663Z,53.80
2019-05-23T09:12:53.330Z,53.10
2019-05-23T09:15:22.005Z,54.50
2019-05-23T09:17:53.333Z,53.50
2019-05-23T09:20:21.784Z,54.00
2019-05-23T09:22:50.223Z,53.60
2019-05-23T09:25:19.299Z,55.20
2019-05-23T09:27:49.436Z,54.60
2019-05-23T09:30:18.881Z,53.10
2019-05-23T09:32:47.389Z,54.90
2019-05-23T09:35:22.012Z,55.70
2019-05-23T09:37:47.220Z,54.40
2019-05-23T09:40:16.118Z,51.80
2019-05-23T09:42:44.985Z,54.40
2019-05-23T09:45:13.844Z,53.10
2019-05-23T09:47:42.304Z,52.20
2019-05-23T09:50:15.437Z,53.20
2019-05-23T09:52:43.945Z,53.70
2019-05-23T09:55:13.171Z,51.80
2019-05-23T09:57:41.891Z,52.30
2019-05-23T10:00:13.147Z,53.10
2019-05-23T10:02:41.804Z,53.40
2019-05-23T10:05:13.451Z,51.30
2019-05-23T10:07:42.060Z,52.50
2019-05-23T10:10:12.936Z,52.30
2019-05-23T10:12:41.619Z,52.40
2019-05-23T10:15:20.585Z,49.70
2019-05-23T10:17:49.078Z,51.90
2019-05-23T10:20:18.626Z,51.80
2019-05-23T10:22:48.704Z,51.10
2019-05-23T10:25:17.210Z,52.00
2019-05-23T10:27:45.629Z,52.80
2019-05-23T10:30:16.150Z,50.40
2019-05-23T10:32:44.645Z,50.10
2019-05-23T10:35:14.913Z,51.30
2019-05-23T10:37:43.464Z,51.40
2019-05-23T10:40:12.619Z,51.60
2019-05-23T10:42:41.092Z,51.10
2019-05-23T10:45:09.878Z,51.60
2019-05-23T10:47:38.710Z,48.60
2019-05-23T10:50:10.178Z,50.90
2019-05-23T10:52:39.193Z,49.50
2019-05-23T10:55:08.281Z,50.20
2019-05-23T10:57:37.295Z,49.60
2019-05-23T11:00:07.936Z,47.20
2019-05-23T11:02:36.995Z,47.20
2019-05-23T11:05:13.357Z,48.50
2019-05-23T11:07:41.238Z,48.00
2019-05-23T11:10:10.132Z,49.40
2019-05-23T11:12:39.191Z,50.50
2019-05-23T11:15:08.172Z,48.40
2019-05-23T11:17:36.926Z,47.30
2019-05-23T11:20:08.279Z,47.50
2019-05-23T11:22:36.782Z,47.60
2019-05-23T11:25:10.170Z,50.40
2019-05-23T11:27:38.840Z,51.00
2019-05-23T11:30:11.048Z,49.90
2019-05-23T11:32:39.549Z,50.40
2019-05-23T11:35:08.110Z,48.60
2019-05-23T11:37:36.541Z,48.30
2019-05-23T11:40:07.189Z,48.40
2019-05-23T11:42:36.085Z,48.70
2019-05-23T11:45:06.393Z,47.90
2019-05-23T11:47:34.853Z,45.60
2019-05-23T11:50:04.903Z,46.80
2019-05-23T11:52:33.357Z,48.30
2019-05-23T11:55:01.861Z,48.10
2019-05-23T11:57:30.925Z,46.40
2019-05-23T11:59:59.418Z,46.60
2019-05-23T12:02:35.809Z,47.20
2019-05-23T12:05:07.729Z,47.60
2019-05-23T12:07:36.149Z,47.10
2019-05-23T12:10:07.383Z,45.90
2019-05-23T12:12:36.009Z,44.10
2019-05-23T12:15:09.130Z,45.30
2019-05-23T12:17:37.560Z,46.30
2019-05-23T12:20:07.673Z,46.10
2019-05-23T12:22:36.414Z,46.00
2019-05-23T12:25:21.239Z,45.70
2019-05-23T12:27:38.392Z,44.10
2019-05-23T12:30:10.123Z,45.10
2019-05-23T12:32:38.625Z,43.00
2019-05-23T12:35:11.084Z,45.10
2019-05-23T12:37:37.501Z,43.70
2019-05-23T12:40:08.985Z,43.40
2019-05-23T12:42:37.561Z,43.70
2019-05-23T12:45:09.563Z,43.10
2019-05-23T12:47:42.711Z,42.50
2019-05-23T12:50:13.008Z,43.60
2019-05-23T12:52:41.558Z,42.60
2019-05-23T12:55:10.562Z,42.00
2019-05-23T12:57:39.376Z,42.20
2019-05-23T13:00:10.418Z,43.40
2019-05-23T13:02:39.263Z,43.30
2019-05-23T13:05:09.120Z,43.20
2019-05-23T13:07:37.549Z,42.30
2019-05-23T13:10:08.227Z,40.80
2019-05-23T13:12:36.685Z,39.30
2019-05-23T13:15:07.236Z,40.20
2019-05-23T13:17:35.665Z,41.50
2019-05-23T13:20:07.132Z,42.20
2019-05-23T13:22:37.096Z,42.80
2019-05-23T13:25:06.376Z,42.80
2019-05-23T13:27:35.130Z,42.40
2019-05-23T13:30:05.323Z,41.20
2019-05-23T13:32:33.882Z,42.20
2019-05-23T13:35:02.317Z,42.10
2019-05-23T13:37:30.993Z,39.70
2019-05-23T13:39:59.512Z,40.00
2019-05-23T13:42:28.004Z,41.50
2019-05-23T13:44:59.380Z,40.90
2019-05-23T13:47:27.935Z,42.00
2019-05-23T13:49:56.568Z,42.40
2019-05-23T13:52:25.084Z,41.80
2019-05-23T13:54:53.569Z,41.60
2019-05-23T13:57:22.159Z,40.80
2019-05-23T13:59:50.669Z,41.20
2019-05-23T14:02:19.654Z,41.90
2019-05-23T14:04:48.296Z,41.40
2019-05-23T14:07:16.733Z,42.80
2019-05-23T14:09:45.317Z,40.40
2019-05-23T14:12:22.145Z,41.90
2019-05-23T14:14:44.453Z,41.30
2019-05-23T14:17:17.777Z,40.30
2019-05-23T14:19:46.361Z,41.30
2019-05-23T14:22:15.305Z,41.10
2019-05-23T14:24:43.953Z,40.30
2019-05-23T14:27:14.481Z,40.40
2019-05-23T14:29:43.008Z,40.50
2019-05-23T14:32:22.839Z,39.90
2019-05-23T14:34:52.980Z,39.50
2019-05-23T14:37:35.759Z,40.30
2019-05-23T14:40:07.697Z,40.90
2019-05-23T14:42:52.919Z,39.30
2019-05-23T14:45:22.143Z,38.90
2019-05-23T14:48:03.891Z,39.80
2019-05-23T14:50:34.525Z,40.70
2019-05-23T14:53:05.348Z,39.70
2019-05-23T14:55:33.759Z,39.20
2019-05-23T14:58:02.575Z,39.10
2019-05-23T15:00:31.286Z,38.50
2019-05-23T15:03:00.154Z,37.00
2019-05-23T15:05:29.242Z,38.00
2019-05-23T15:07:57.682Z,36.60
2019-05-23T15:10:26.257Z,37.70
2019-05-23T15:12:54.879Z,38.20
2019-05-23T15:15:23.428Z,37.10
2019-05-23T15:17:51.974Z,36.50
2019-05-23T15:20:20.834Z,35.80
2019-05-23T15:22:49.271Z,34.90
2019-05-23T15:25:20.653Z,32.90
2019-05-23T15:27:49.089Z,33.70
2019-05-23T15:30:18.219Z,34.50
2019-05-23T15:32:46.702Z,37.00
2019-05-23T15:35:15.525Z,37.60
2019-05-23T15:37:43.988Z,37.90
2019-05-23T15:40:16.598Z,38.80
2019-05-23T15:42:45.083Z,40.10
2019-05-23T15:45:13.785Z,38.70
2019-05-23T15:47:42.372Z,39.40
2019-05-23T15:50:13.079Z,40.60
2019-05-23T15:52:43.157Z,39.00
2019-05-23T15:55:30.118Z,37.70
2019-05-23T15:58:06.516Z,36.70
2019-05-23T16:00:36.932Z,35.90
2019-05-23T16:03:15.998Z,36.20
2019-05-23T16:05:45.168Z,36.70
2019-05-23T16:08:13.959Z,36.30
2019-05-23T16:10:42.653Z,35.80
2019-05-23T16:13:11.144Z,37.40
2019-05-23T16:15:39.653Z,37.50
2019-05-23T16:18:08.681Z,37.60
2019-05-23T16:20:37.166Z,37.10
2019-05-23T16:23:05.943Z,38.10
2019-05-23T16:25:34.400Z,39.10
2019-05-23T16:28:03.027Z,37.50
2019-05-23T16:30:31.846Z,36.90
2019-05-23T16:33:00.329Z,37.60
2019-05-23T16:35:28.838Z,37.40
2019-05-23T16:37:57.463Z,38.80
2019-05-23T16:40:26.200Z,38.70
2019-05-23T16:42:54.729Z,38.50
2019-05-23T16:45:23.116Z,40.30
2019-05-23T16:47:51.638Z,42.30
2019-05-23T16:50:20.215Z,43.60
2019-05-23T16:52:50.030Z,45.20
2019-05-23T16:55:20.226Z,45.50
2019-05-23T16:57:50.667Z,47.00
2019-05-23T17:00:37.648Z,48.20
2019-05-23T17:03:25.931Z,48.40
2019-05-23T17:06:12.570Z,48.60
2019-05-23T17:08:42.819Z,49.10
2019-05-23T17:11:24.728Z,50.10
2019-05-23T17:14:00.469Z,49.50
2019-05-23T17:16:33.477Z,49.90
2019-05-23T17:19:11.135Z,50.10
2019-05-23T17:21:43.989Z,49.40
2019-05-23T17:24:13.348Z,50.00
2019-05-23T17:27:01.904Z,50.30
2019-05-23T17:29:49.521Z,49.90
2019-05-23T17:32:19.355Z,51.10
2019-05-23T17:34:48.082Z,50.00
2019-05-23T17:37:17.052Z,51.20
2019-05-23T17:39:45.939Z,51.50
2019-05-23T17:42:14.542Z,51.10
2019-05-23T17:44:43.045Z,51.80
2019-05-23T17:47:11.456Z,51.50
2019-05-23T17:49:39.896Z,51.30
2019-05-23T17:52:08.816Z,52.10
2019-05-23T17:54:37.254Z,52.70
2019-05-23T17:57:06.040Z,52.90
2019-05-23T17:59:34.474Z,53.20
2019-05-23T18:02:04.740Z,54.10
2019-05-23T18:04:33.185Z,54.40
2019-05-23T18:07:02.126Z,53.30
2019-05-23T18:09:30.911Z,53.80
2019-05-23T18:11:59.783Z,53.50
2019-05-23T18:14:28.295Z,54.00
2019-05-23T18:16:57.518Z,54.00
2019-05-23T18:19:26.198Z,54.30
2019-05-23T18:21:55.607Z,54.40
2019-05-23T18:24:24.609Z,54.10
2019-05-23T18:26:53.395Z,55.20
2019-05-23T18:29:21.933Z,56.00
2019-05-23T18:31:51.933Z,55.40
2019-05-23T18:34:22.386Z,55.80
2019-05-23T18:36:52.380Z,55.80
2019-05-23T18:39:22.466Z,56.90
2019-05-23T18:41:51.315Z,56.50
2019-05-23T18:44:20.047Z,56.90
2019-05-23T18:46:50.258Z,57.70
2019-05-23T18:49:19.313Z,58.10
2019-05-23T18:51:47.988Z,58.90
2019-05-23T18:54:16.957Z,60.40
2019-05-23T18:56:45.630Z,60.30
2019-05-23T18:59:14.569Z,62.00
2019-05-23T19:01:43.155Z,67.90
2019-05-23T19:04:12.088Z,70.20
2019-05-23T19:06:40.996Z,71.90
2019-05-23T19:09:11.834Z,74.40
2019-05-23T19:11:41.039Z,76.80
2019-05-23T19:14:09.993Z,79.40
2019-05-23T19:16:39.710Z,80.60
2019-05-23T19:19:08.641Z,81.70
2019-05-23T19:21:37.474Z,83.00
2019-05-23T19:24:06.174Z,83.80
2019-05-23T19:26:35.159Z,84.70
2019-05-23T19:29:03.746Z,85.10
2019-05-23T19:31:32.359Z,86.30
2019-05-23T19:34:00.842Z,85.80
2019-05-23T19:36:30.103Z,85.90
2019-05-23T19:38:58.686Z,86.00
2019-05-23T19:41:37.079Z,87.20
2019-05-23T19:43:57.494Z,87.70
2019-05-23T19:46:26.204Z,89.10
2019-05-23T19:48:55.117Z,88.60
2019-05-23T19:51:23.619Z,88.70
2019-05-23T19:53:52.224Z,89.00
2019-05-23T19:56:20.942Z,89.20
2019-05-23T19:58:49.555Z,90.10
2019-05-23T20:01:18.445Z,90.00
2019-05-23T20:03:47.842Z,90.20
2019-05-23T20:06:17.987Z,90.10
2019-05-23T20:08:47.086Z,90.20
2019-05-23T20:11:15.725Z,90.40
2019-05-23T20:13:44.836Z,90.80
2019-05-23T20:16:13.737Z,91.00
2019-05-23T20:18:42.803Z,90.90
2019-05-23T20:21:11.288Z,90.90
2019-05-23T20:23:40.069Z,90.70
2019-05-23T20:26:08.725Z,91.10
2019-05-23T20:28:39.771Z,91.50
2019-05-23T20:31:07.887Z,91.80
2019-05-23T20:33:36.396Z,92.10
2019-05-23T20:36:06.543Z,92.20
2019-05-23T20:38:35.071Z,92.30
2019-05-23T20:41:03.829Z,92.30
2019-05-23T20:43:32.316Z,92.20
2019-05-23T20:46:00.819Z,92.40
2019-05-23T20:48:29.710Z,92.60
2019-05-23T20:50:58.229Z,92.80
2019-05-23T20:53:26.838Z,92.90
2019-05-23T20:55:55.295Z,93.10
2019-05-23T20:58:23.786Z,93.20
2019-05-23T21:01:05.762Z,93.30
2019-05-23T21:03:36.054Z,93.30
2019-05-23T21:06:05.414Z,93.30
2019-05-23T21:08:34.308Z,93.30
2019-05-23T21:11:02.841Z,93.30
2019-05-23T21:13:31.266Z,93.10
2019-05-23T21:15:59.860Z,93.40
2019-05-23T21:18:28.474Z,92.90
2019-05-23T21:20:56.961Z,93.20
2019-05-23T21:23:25.481Z,93.60
2019-05-23T21:25:55.540Z,93.80
2019-05-23T21:28:23.953Z,94.00
2019-05-23T21:30:52.418Z,94.10
2019-05-23T21:33:20.822Z,94.10
2019-05-23T21:35:49.329Z,94.30
2019-05-23T21:38:17.774Z,94.60
2019-05-23T21:40:46.459Z,94.90
2019-05-23T21:43:15.052Z,95.00
2019-05-23T21:45:44.065Z,95.00
2019-05-23T21:48:12.783Z,95.20
2019-05-23T21:50:41.413Z,95.30
2019-05-23T21:53:10.169Z,95.40
2019-05-23T21:55:43.409Z,95.60
2019-05-23T21:58:13.866Z,95.70
2019-05-23T22:01:07.860Z,95.60
2019-05-23T22:03:45.095Z,95.70
2019-05-23T22:06:15.437Z,95.80
2019-05-23T22:08:44.041Z,95.90
2019-05-23T22:11:12.562Z,96.00
2019-05-23T22:13:41.004Z,96.20
2019-05-23T22:16:09.676Z,96.30
2019-05-23T22:18:38.228Z,96.40
2019-05-23T22:21:07.030Z,96.50
2019-05-23T22:23:35.548Z,96.70
2019-05-23T22:26:04.059Z,96.80
2019-05-23T22:28:32.511Z,96.70
2019-05-23T22:31:00.999Z,96.80
2019-05-23T22:33:33.637Z,96.70
2019-05-23T22:36:02.054Z,96.70
2019-05-23T22:38:30.611Z,96.80
2019-05-23T22:40:59.226Z,96.90
2019-05-23T22:43:27.837Z,97.00
2019-05-23T22:45:56.257Z,97.10
2019-05-23T22:48:24.766Z,97.20
2019-05-23T22:50:53.186Z,97.30
2019-05-23T22:53:21.638Z,97.80
2019-05-23T22:55:50.064Z,97.60
2019-05-23T22:58:18.592Z,97.60
2019-05-23T23:00:48.714Z,97.80
2019-05-23T23:03:17.438Z,97.90
2019-05-23T23:05:45.849Z,98.00
2019-05-23T23:08:14.279Z,98.00
2019-05-23T23:10:42.773Z,97.90
2019-05-23T23:13:11.307Z,97.90
2019-05-23T23:15:39.712Z,97.80
2019-05-23T23:18:08.605Z,97.90
2019-05-23T23:20:37.077Z,97.90
2019-05-23T23:23:05.497Z,97.80
2019-05-23T23:25:34.061Z,97.90
2019-05-23T23:28:02.635Z,97.80
2019-05-23T23:30:48.057Z,97.80
2019-05-23T23:33:16.584Z,97.80
2019-05-23T23:35:45.132Z,98.00
2019-05-23T23:38:13.817Z,98.20
2019-05-23T23:40:42.395Z,98.20
2019-05-23T23:43:10.865Z,98.00
2019-05-23T23:45:57.151Z,97.90
2019-05-23T23:48:43.522Z,97.80
2019-05-23T23:51:30.213Z,97.80
2019-05-23T23:54:16.930Z,97.90
2019-05-23T23:57:03.498Z,97.90
2019-05-23T23:59:31.436Z,98.00
